createdAt,value
2024-03-10T00:00:22.176Z,100221.17
2024-03-10T00:03:11.055Z,100228.96
2024-03-10T00:05:41.877Z,100233.00
2024-03-10T00:08:09.725Z,100231.23
2024-03-10T00:10:42.804Z,100231.85
2024-03-10T00:13:10.874Z,100231.43
2024-03-10T00:15:39.030Z,100230.09
2024-03-10T00:18:07.589Z,100225.21
2024-03-10T00:20:35.708Z,100229.60
2024-03-10T00:23:05.001Z,100224.95
2024-03-10T00:25:32.856Z,100225.14
2024-03-10T00:28:00.619Z,100225.45
2024-03-10T00:30:29.461Z,100224.42
2024-03-10T00:32:57.467Z,100219.07
2024-03-10T00:35:25.309Z,100219.11
2024-03-10T00:37:53.917Z,100222.38
2024-03-10T00:40:21.745Z,100222.52
2024-03-10T00:42:49.473Z,100220.09
2024-03-10T00:45:17.332Z,100219.34
2024-03-10T00:47:46.513Z,100216.39
2024-03-10T00:50:15.877Z,100214.20
2024-03-10T00:52:43.926Z,100216.69
2024-03-10T00:55:12.073Z,100214.38
2024-03-10T00:57:40.034Z,100211.52
2024-03-10T01:00:11.715Z,100210.73
2024-03-10T01:02:39.983Z,100212.56
2024-03-10T01:05:08.958Z,100220.24
2024-03-10T01:07:36.877Z,100224.31
2024-03-10T01:10:05.059Z,100229.45
2024-03-10T01:12:32.835Z,100230.21
2024-03-10T01:15:00.595Z,100235.33
2024-03-10T01:17:28.756Z,100239.69
2024-03-10T01:19:58.169Z,100240.40
2024-03-10T01:22:26.088Z,100231.48
2024-03-10T01:24:55.401Z,100233.15
2024-03-10T01:27:23.185Z,100229.48
2024-03-10T01:29:52.232Z,100229.27
2024-03-10T01:32:20.136Z,100227.16
2024-03-10T01:34:48.029Z,100229.56
2024-03-10T01:37:16.862Z,100229.02
2024-03-10T01:39:44.681Z,100224.80
2024-03-10T01:42:12.569Z,100220.52
2024-03-10T01:44:40.474Z,100216.52
2024-03-10T01:47:09.120Z,100213.45
2024-03-10T01:49:38.012Z,100212.53
2024-03-10T01:52:07.966Z,100208.88
2024-03-10T01:54:36.883Z,100208.80
2024-03-10T01:57:06.252Z,100209.35
2024-03-10T01:59:35.228Z,100212.36
2024-03-10T02:02:06.263Z,100211.45
2024-03-10T02:04:34.320Z,100215.27
2024-03-10T02:07:03.054Z,100215.95
2024-03-10T02:09:32.097Z,100211.45
2024-03-10T02:12:00.354Z,100213.16
2024-03-10T02:14:28.192Z,100211.92
2024-03-10T02:16:55.972Z,100211.95
2024-03-10T02:19:23.763Z,100208.27
2024-03-10T02:21:51.501Z,100202.29
2024-03-10T02:24:25.541Z,100198.88
2024-03-10T02:26:53.331Z,100197.75
2024-03-10T02:29:22.634Z,100195.83
2024-03-10T02:32:10.273Z,100196.42
2024-03-10T02:34:57.939Z,100196.12
2024-03-10T02:37:44.574Z,100190.95
2024-03-10T02:40:31.271Z,100192.89
2024-03-10T02:43:17.968Z,100193.77
2024-03-10T02:46:04.229Z,100194.09
2024-03-10T02:48:33.104Z,100190.98
2024-03-10T02:51:00.927Z,100186.34
2024-03-10T02:53:28.761Z,100189.51
2024-03-10T02:55:56.905Z,100187.96
2024-03-10T02:58:24.628Z,100190.96
2024-03-10T03:00:52.388Z,100188.50
2024-03-10T03:03:20.189Z,100188.04
2024-03-10T03:05:49.131Z,100191.94
2024-03-10T03:08:17.805Z,100192.66
2024-03-10T03:10:46.151Z,100197.94
2024-03-10T03:13:13.985Z,100201.23
2024-03-10T03:15:41.718Z,100199.13
2024-03-10T03:18:09.686Z,100195.91
2024-03-10T03:20:37.545Z,100198.86
2024-03-10T03:23:05.606Z,100198.00
2024-03-10T03:25:34.045Z,100198.59
2024-03-10T03:28:02.083Z,100195.05
2024-03-10T03:30:31.543Z,100191.98
2024-03-10T03:32:59.463Z,100185.89
2024-03-10T03:35:27.442Z,100183.45
2024-03-10T03:37:55.394Z,100187.98
2024-03-10T03:40:24.524Z,100189.02
2024-03-10T03:42:52.431Z,100187.88
2024-03-10T03:45:20.292Z,100185.02
2024-03-10T03:47:48.090Z,100182.75
2024-03-10T03:50:16.683Z,100179.98
2024-03-10T03:52:44.631Z,100182.83
2024-03-10T03:55:12.539Z,100184.35
2024-03-10T03:57:40.305Z,100181.32
2024-03-10T04:00:13.462Z,100176.75
2024-03-10T04:02:41.457Z,100177.06
2024-03-10T04:05:09.810Z,100178.12
2024-03-10T04:07:37.606Z,100172.61
2024-03-10T04:10:07.340Z,100172.61
2024-03-10T04:12:35.063Z,100171.27
2024-03-10T04:15:03.798Z,100169.84
2024-03-10T04:17:33.261Z,100167.19
2024-03-10T04:20:01.506Z,100167.45
2024-03-10T04:22:29.513Z,100162.95
2024-03-10T04:24:57.370Z,100158.16
2024-03-10T04:27:25.351Z,100159.20
2024-03-10T04:29:53.158Z,100157.58
2024-03-10T04:32:20.953Z,100159.89
2024-03-10T04:34:48.786Z,100158.05
2024-03-10T04:37:16.600Z,100154.02
2024-03-10T04:39:44.300Z,100155.86
2024-03-10T04:42:11.964Z,100157.15
2024-03-10T04:44:39.714Z,100156.39
2024-03-10T04:47:07.573Z,100150.80
2024-03-10T04:49:35.355Z,100150.40
2024-03-10T04:52:03.423Z,100148.56
2024-03-10T04:54:32.220Z,100149.36
2024-03-10T04:57:00.863Z,100148.14
2024-03-10T04:59:28.951Z,100149.91
2024-03-10T05:01:58.095Z,100154.25
2024-03-10T05:04:25.916Z,100155.11
2024-03-10T05:06:53.658Z,100150.15
2024-03-10T05:09:21.627Z,100150.92
2024-03-10T05:11:49.553Z,100150.03
2024-03-10T05:14:17.539Z,100150.59
2024-03-10T05:16:45.421Z,100153.16
2024-03-10T05:19:13.247Z,100153.77
2024-03-10T05:21:46.579Z,100157.83
2024-03-10T05:24:14.800Z,100162.63
2024-03-10T05:26:42.598Z,100164.41
2024-03-10T05:29:10.537Z,100171.64
2024-03-10T05:31:38.518Z,100168.96
2024-03-10T05:34:06.586Z,100171.15
2024-03-10T05:36:35.098Z,100165.05
2024-03-10T05:39:03.535Z,100165.52
2024-03-10T05:41:31.521Z,100166.13
2024-03-10T05:44:01.042Z,100169.83
2024-03-10T05:46:28.881Z,100168.05
2024-03-10T05:48:57.358Z,100170.85
2024-03-10T05:51:25.805Z,100171.24
2024-03-10T05:53:56.426Z,100167.64
2024-03-10T05:56:24.430Z,100164.77
2024-03-10T05:58:52.409Z,100159.37
2024-03-10T06:01:25.365Z,100160.46
2024-03-10T06:03:53.776Z,100158.71
2024-03-10T06:06:24.808Z,100161.94
2024-03-10T06:08:55.528Z,100160.86
2024-03-10T06:11:24.634Z,100158.94
2024-03-10T06:13:55.531Z,100158.05
2024-03-10T06:16:25.709Z,100159.04
2024-03-10T06:18:57.367Z,100161.50
2024-03-10T06:21:48.733Z,100162.84
2024-03-10T06:24:35.263Z,100160.55
2024-03-10T06:27:03.726Z,100156.98
2024-03-10T06:29:33.351Z,100163.76
2024-03-10T06:32:01.653Z,100166.72
2024-03-10T06:34:29.620Z,100167.23
2024-03-10T06:37:01.808Z,100169.61
2024-03-10T06:39:29.605Z,100174.42
2024-03-10T06:42:01.545Z,100173.54
2024-03-10T06:44:29.409Z,100177.02
2024-03-10T06:46:57.279Z,100173.60
2024-03-10T06:49:25.074Z,100170.45
2024-03-10T06:51:58.425Z,100167.81
2024-03-10T06:54:26.178Z,100171.51
2024-03-10T06:56:56.126Z,100172.10
2024-03-10T06:59:24.332Z,100172.04
2024-03-10T07:01:56.872Z,100171.21
2024-03-10T07:04:25.270Z,100171.20
2024-03-10T07:06:56.504Z,100178.17
2024-03-10T07:09:24.456Z,100178.11
2024-03-10T07:11:55.499Z,100180.96
2024-03-10T07:14:23.577Z,100175.66
2024-03-10T07:16:55.538Z,100170.51
2024-03-10T07:19:23.266Z,100167.70
2024-03-10T07:21:54.331Z,100166.93
2024-03-10T07:24:22.053Z,100169.89
2024-03-10T07:26:52.140Z,100170.21
2024-03-10T07:29:20.090Z,100166.04
2024-03-10T07:31:48.430Z,100167.08
2024-03-10T07:34:21.771Z,100164.15
2024-03-10T07:36:52.129Z,100161.52
2024-03-10T07:39:19.920Z,100159.71
2024-03-10T07:41:47.752Z,100161.70
2024-03-10T07:44:17.296Z,100165.72
2024-03-10T07:46:45.247Z,100164.70
2024-03-10T07:49:13.315Z,100166.13
2024-03-10T07:51:41.082Z,100162.17
2024-03-10T07:54:09.482Z,100158.56
2024-03-10T07:56:37.436Z,100162.29
2024-03-10T07:59:05.326Z,100163.12
2024-03-10T08:01:33.154Z,100162.14
2024-03-10T08:04:01.364Z,100164.71
2024-03-10T08:06:29.309Z,100157.80
2024-03-10T08:08:57.459Z,100160.29
2024-03-10T08:11:25.367Z,100162.92
2024-03-10T08:13:53.314Z,100162.57
2024-03-10T08:16:21.254Z,100157.52
2024-03-10T08:18:51.021Z,100156.85
2024-03-10T08:21:20.037Z,100152.79
2024-03-10T08:23:47.798Z,100145.29
2024-03-10T08:26:15.779Z,100143.05
2024-03-10T08:28:44.064Z,100142.69
2024-03-10T08:31:14.032Z,100140.75
2024-03-10T08:33:41.864Z,100138.31
2024-03-10T08:36:10.445Z,100134.58
2024-03-10T08:38:38.527Z,100133.55
2024-03-10T08:41:06.501Z,100131.20
2024-03-10T08:43:36.176Z,100130.09
2024-03-10T08:46:04.505Z,100125.21
2024-03-10T08:48:32.368Z,100125.08
2024-03-10T08:51:00.151Z,100120.85
2024-03-10T08:53:28.502Z,100119.41
2024-03-10T08:55:56.955Z,100113.29
2024-03-10T08:58:25.865Z,100122.27
2024-03-10T09:00:53.781Z,100111.91
2024-03-10T09:03:23.723Z,100111.41
2024-03-10T09:05:52.278Z,100109.79
2024-03-10T09:08:20.431Z,100105.75
2024-03-10T09:10:53.769Z,100107.52
2024-03-10T09:13:30.704Z,100105.29
2024-03-10T09:15:58.869Z,100107.44
2024-03-10T09:18:27.275Z,100103.58
2024-03-10T09:20:57.593Z,100106.25
2024-03-10T09:23:26.615Z,100100.80
2024-03-10T09:25:55.985Z,100102.67
2024-03-10T09:28:25.315Z,100096.77
2024-03-10T09:30:53.095Z,100098.36
2024-03-10T09:33:23.651Z,100089.31
2024-03-10T09:35:55.363Z,100088.14
2024-03-10T09:38:23.829Z,100087.87
2024-03-10T09:40:52.628Z,100086.10
2024-03-10T09:43:22.619Z,100077.52
2024-03-10T09:45:53.417Z,100071.70
2024-03-10T09:48:23.588Z,100072.55
2024-03-10T09:50:53.285Z,100068.64
2024-03-10T09:53:21.319Z,100064.89
2024-03-10T09:55:50.008Z,100063.92
2024-03-10T09:58:29.757Z,100068.77
2024-03-10T10:01:13.455Z,100067.05
2024-03-10T10:03:51.581Z,100065.55
2024-03-10T10:06:21.940Z,100061.48
2024-03-10T10:08:56.121Z,100064.28
2024-03-10T10:11:27.191Z,100059.20
2024-03-10T10:14:11.054Z,100058.08
2024-03-10T10:16:49.130Z,100056.35
2024-03-10T10:19:18.216Z,100056.56
2024-03-10T10:21:46.277Z,100051.77
2024-03-10T10:24:15.276Z,100051.84
2024-03-10T10:26:43.337Z,100053.40
2024-03-10T10:29:12.095Z,100051.27
2024-03-10T10:31:40.051Z,100054.14
2024-03-10T10:34:15.703Z,100060.66
2024-03-10T10:36:45.004Z,100057.27
2024-03-10T10:39:17.813Z,100053.98
2024-03-10T10:41:47.016Z,100056.54
2024-03-10T10:44:16.302Z,100053.90
2024-03-10T10:46:45.781Z,100048.70
2024-03-10T10:49:14.547Z,100048.34
2024-03-10T10:51:45.966Z,100052.58
2024-03-10T10:54:14.184Z,100045.30
2024-03-10T10:56:42.229Z,100041.04
2024-03-10T10:59:14.182Z,100045.48
2024-03-10T11:01:46.629Z,100037.52
2024-03-10T11:04:15.067Z,100033.09
2024-03-10T11:06:43.821Z,100036.19
2024-03-10T11:09:16.136Z,100032.03
2024-03-10T11:11:47.528Z,100030.02
2024-03-10T11:14:18.215Z,100026.98
2024-03-10T11:16:46.450Z,100026.04
2024-03-10T11:19:19.663Z,100022.88
2024-03-10T11:21:51.598Z,100026.02
2024-03-10T11:24:22.637Z,100023.05
2024-03-10T11:27:11.578Z,100019.41
2024-03-10T11:29:41.058Z,100016.65
2024-03-10T11:32:34.766Z,100012.93
2024-03-10T11:35:15.192Z,100010.27
2024-03-10T11:37:44.336Z,100010.41
2024-03-10T11:40:17.190Z,100001.97
2024-03-10T11:42:46.512Z,99992.38
2024-03-10T11:45:15.812Z,99986.82
2024-03-10T11:47:59.272Z,99983.95
2024-03-10T11:50:27.534Z,99978.33
2024-03-10T11:52:55.404Z,99980.95
2024-03-10T11:55:24.397Z,99974.38
2024-03-10T11:57:55.385Z,99979.69
2024-03-10T12:00:27.506Z,99971.77
2024-03-10T12:02:56.509Z,99965.23
2024-03-10T12:05:24.627Z,99969.35
2024-03-10T12:07:59.299Z,99971.11
2024-03-10T12:10:29.267Z,99973.20
2024-03-10T12:12:59.123Z,99979.11
2024-03-10T12:15:28.008Z,99974.37
2024-03-10T12:17:56.226Z,99982.23
2024-03-10T12:20:25.066Z,99986.07
2024-03-10T12:22:54.421Z,99985.52
2024-03-10T12:25:22.453Z,99984.99
2024-03-10T12:27:50.754Z,99981.52
2024-03-10T12:30:20.768Z,99978.84
2024-03-10T12:32:54.608Z,99982.15
2024-03-10T12:35:23.231Z,99978.20
2024-03-10T12:37:52.875Z,99979.01
2024-03-10T12:40:22.218Z,99974.61
2024-03-10T12:42:52.280Z,99969.05
2024-03-10T12:45:20.747Z,99967.34
2024-03-10T12:47:52.307Z,99964.44
2024-03-10T12:50:21.337Z,99968.15
2024-03-10T12:52:49.636Z,99961.27
2024-03-10T12:55:19.999Z,99960.40
2024-03-10T12:57:47.834Z,99962.45
2024-03-10T13:00:30.529Z,99957.36
2024-03-10T13:02:59.343Z,99961.85
2024-03-10T13:05:29.228Z,99953.33
2024-03-10T13:07:58.908Z,99951.73
2024-03-10T13:10:27.154Z,99948.52
2024-03-10T13:12:55.069Z,99952.07
2024-03-10T13:15:23.378Z,99953.48
2024-03-10T13:17:51.668Z,99955.36
2024-03-10T13:20:22.281Z,99963.48
2024-03-10T13:22:50.534Z,99966.36
2024-03-10T13:25:18.684Z,99963.60
2024-03-10T13:27:46.561Z,99967.55
2024-03-10T13:30:15.664Z,99961.48
2024-03-10T13:32:43.893Z,99959.53
2024-03-10T13:35:14.421Z,99957.91
2024-03-10T13:37:42.671Z,99957.98
2024-03-10T13:40:18.364Z,99960.11
2024-03-10T13:42:47.427Z,99965.53
2024-03-10T13:45:23.257Z,99964.64
2024-03-10T13:48:00.304Z,99959.76
2024-03-10T13:50:29.811Z,99960.79
2024-03-10T13:52:57.909Z,99962.83
2024-03-10T13:55:27.193Z,99955.52
2024-03-10T13:57:55.501Z,99957.64
2024-03-10T14:00:26.462Z,99954.02
2024-03-10T14:02:54.941Z,99951.66
2024-03-10T14:05:25.736Z,99952.66
2024-03-10T14:07:54.132Z,99949.52
2024-03-10T14:10:22.236Z,99950.76
2024-03-10T14:12:50.053Z,99941.91
2024-03-10T14:15:21.797Z,99943.91
2024-03-10T14:17:49.856Z,99944.27
2024-03-10T14:20:27.260Z,99941.80
2024-03-10T14:22:55.703Z,99936.61
2024-03-10T14:25:23.937Z,99930.98
2024-03-10T14:27:53.456Z,99931.31
2024-03-10T14:30:28.088Z,99933.96
2024-03-10T14:32:58.050Z,99936.05
2024-03-10T14:35:27.588Z,99935.30
2024-03-10T14:37:57.230Z,99933.92
2024-03-10T14:40:25.689Z,99932.12
2024-03-10T14:42:56.338Z,99936.38
2024-03-10T14:45:24.948Z,99939.04
2024-03-10T14:47:53.905Z,99938.02
2024-03-10T14:50:26.997Z,99934.44
2024-03-10T14:52:56.477Z,99939.23
2024-03-10T14:55:25.839Z,99937.48
2024-03-10T14:57:54.654Z,99935.73
2024-03-10T15:00:41.101Z,99933.13
2024-03-10T15:03:16.669Z,99933.73
2024-03-10T15:05:46.741Z,99932.18
2024-03-10T15:08:18.028Z,99935.39
2024-03-10T15:10:52.736Z,99934.38
2024-03-10T15:13:24.124Z,99935.40
2024-03-10T15:15:52.929Z,99932.59
2024-03-10T15:18:21.040Z,99928.17
2024-03-10T15:20:49.088Z,99930.11
2024-03-10T15:23:20.233Z,99931.44
2024-03-10T15:25:50.466Z,99932.34
2024-03-10T15:28:21.672Z,99935.96
2024-03-10T15:30:49.646Z,99936.68
2024-03-10T15:33:18.195Z,99940.16
2024-03-10T15:35:46.359Z,99936.77
2024-03-10T15:38:15.186Z,99940.48
2024-03-10T15:40:44.314Z,99939.80
2024-03-10T15:43:13.797Z,99940.65
2024-03-10T15:45:43.595Z,99947.71
2024-03-10T15:48:12.707Z,99949.11
2024-03-10T15:50:41.238Z,99947.14
2024-03-10T15:53:11.752Z,99950.60
2024-03-10T15:55:40.398Z,99949.38
2024-03-10T15:58:09.186Z,99948.52
2024-03-10T16:00:38.470Z,99950.27
2024-03-10T16:03:14.546Z,99948.27
2024-03-10T16:05:50.364Z,99953.48
2024-03-10T16:08:19.959Z,99955.20
2024-03-10T16:10:50.290Z,99954.62
2024-03-10T16:13:37.839Z,99954.39
2024-03-10T16:16:06.960Z,99951.73
2024-03-10T16:18:38.398Z,99951.96
2024-03-10T16:21:11.423Z,99953.47
2024-03-10T16:23:39.740Z,99955.59
2024-03-10T16:26:08.029Z,99956.70
2024-03-10T16:28:36.019Z,99957.09
2024-03-10T16:31:04.115Z,99965.59
2024-03-10T16:33:31.971Z,99966.08
2024-03-10T16:35:59.739Z,99968.08
2024-03-10T16:38:27.529Z,99971.05
2024-03-10T16:40:56.535Z,99975.08
2024-03-10T16:43:25.052Z,99976.86
2024-03-10T16:45:53.217Z,99980.16
2024-03-10T16:48:21.207Z,99983.59
2024-03-10T16:50:50.886Z,99983.58
2024-03-10T16:53:18.805Z,99986.20
2024-03-10T16:55:49.076Z,99994.96
2024-03-10T16:58:20.491Z,99986.51
2024-03-10T17:00:48.512Z,99986.45
2024-03-10T17:03:16.886Z,99985.40
2024-03-10T17:05:45.168Z,99983.95
2024-03-10T17:08:14.882Z,99983.53
2024-03-10T17:10:45.389Z,99983.57
2024-03-10T17:13:15.048Z,99987.86
2024-03-10T17:15:43.625Z,99984.67
2024-03-10T17:18:14.348Z,99988.98
2024-03-10T17:20:42.898Z,99980.48
2024-03-10T17:23:13.931Z,99984.41
2024-03-10T17:25:41.843Z,99988.53
2024-03-10T17:28:09.786Z,99986.57
2024-03-10T17:30:37.607Z,99983.80
2024-03-10T17:33:05.968Z,99984.40
2024-03-10T17:35:35.428Z,99984.18
2024-03-10T17:38:05.513Z,99991.67
2024-03-10T17:40:33.662Z,99993.33
2024-03-10T17:43:01.635Z,99998.49
2024-03-10T17:45:29.874Z,99995.94
2024-03-10T17:48:00.547Z,99993.98
2024-03-10T17:50:28.526Z,100001.11
2024-03-10T17:52:56.718Z,100000.11
2024-03-10T17:55:24.467Z,99998.63
2024-03-10T17:57:52.719Z,99998.20
2024-03-10T18:00:23.868Z,99998.04
2024-03-10T18:02:52.005Z,99998.00
2024-03-10T18:05:20.131Z,100005.71
2024-03-10T18:07:52.323Z,100005.64
2024-03-10T18:10:22.490Z,100006.16
2024-03-10T18:12:54.854Z,100004.63
2024-03-10T18:15:25.312Z,100015.10
2024-03-10T18:17:54.291Z,100010.89
2024-03-10T18:20:26.124Z,100020.53
2024-03-10T18:22:54.243Z,100016.52
2024-03-10T18:25:22.875Z,100017.89
2024-03-10T18:27:51.938Z,100026.95
2024-03-10T18:30:19.773Z,100018.20
2024-03-10T18:32:48.772Z,100026.20
2024-03-10T18:35:17.489Z,100027.49
2024-03-10T18:37:46.074Z,100033.56
2024-03-10T18:40:15.480Z,100032.07
2024-03-10T18:42:44.347Z,100040.66
2024-03-10T18:45:14.212Z,100040.95
2024-03-10T18:47:42.463Z,100042.20
2024-03-10T18:50:12.849Z,100044.55
2024-03-10T18:52:42.482Z,100048.30
2024-03-10T18:55:11.540Z,100050.02
2024-03-10T18:57:39.719Z,100057.23
2024-03-10T19:00:08.482Z,100059.89
2024-03-10T19:02:36.891Z,100064.20
2024-03-10T19:05:05.082Z,100058.46
2024-03-10T19:07:32.986Z,100062.36
2024-03-10T19:10:00.743Z,100057.90
2024-03-10T19:12:28.565Z,100067.02
2024-03-10T19:14:56.482Z,100068.65
2024-03-10T19:17:26.234Z,100070.48
2024-03-10T19:19:57.360Z,100066.98
2024-03-10T19:22:25.234Z,100071.08
2024-03-10T19:24:53.088Z,100077.74
2024-03-10T19:27:20.905Z,100077.02
2024-03-10T19:29:48.760Z,100079.13
2024-03-10T19:32:16.553Z,100081.45
2024-03-10T19:34:44.286Z,100079.73
2024-03-10T19:37:11.996Z,100081.21
2024-03-10T19:39:39.695Z,100087.52
2024-03-10T19:42:07.671Z,100084.07
2024-03-10T19:44:36.411Z,100082.16
2024-03-10T19:47:06.343Z,100084.65
2024-03-10T19:49:37.331Z,100081.64
2024-03-10T19:52:05.449Z,100080.35
2024-03-10T19:54:34.064Z,100076.66
2024-03-10T19:57:02.024Z,100075.63
2024-03-10T19:59:30.430Z,100071.87
2024-03-10T20:02:00.674Z,100073.66
2024-03-10T20:04:30.347Z,100077.30
2024-03-10T20:06:58.337Z,100084.52
2024-03-10T20:09:26.182Z,100087.24
2024-03-10T20:11:55.051Z,100086.06
2024-03-10T20:14:23.011Z,100091.08
2024-03-10T20:16:50.938Z,100084.32
2024-03-10T20:19:18.813Z,100084.60
2024-03-10T20:21:46.549Z,100083.26
2024-03-10T20:24:16.048Z,100080.52
2024-03-10T20:26:44.061Z,100083.30
2024-03-10T20:29:11.833Z,100086.16
2024-03-10T20:31:39.855Z,100084.44
2024-03-10T20:34:07.737Z,100088.63
2024-03-10T20:36:37.311Z,100089.62
2024-03-10T20:39:05.717Z,100086.35
2024-03-10T20:41:33.461Z,100086.42
2024-03-10T20:44:01.421Z,100087.48
2024-03-10T20:46:34.628Z,100096.36
2024-03-10T20:49:06.905Z,100092.67
2024-03-10T20:51:35.146Z,100096.55
2024-03-10T20:54:04.394Z,100095.58
2024-03-10T20:56:32.175Z,100098.10
2024-03-10T20:59:00.203Z,100101.49
2024-03-10T21:01:28.475Z,100104.20
2024-03-10T21:03:56.455Z,100102.30
2024-03-10T21:06:24.549Z,100098.75
2024-03-10T21:08:52.314Z,100101.99
2024-03-10T21:11:20.343Z,100102.61
2024-03-10T21:13:49.648Z,100101.09
2024-03-10T21:16:17.382Z,100100.73
2024-03-10T21:18:45.379Z,100101.30
2024-03-10T21:21:13.190Z,100099.06
2024-03-10T21:23:41.280Z,100098.67
2024-03-10T21:26:09.597Z,100096.35
2024-03-10T21:28:37.962Z,100094.08
2024-03-10T21:31:05.720Z,100095.36
2024-03-10T21:33:33.732Z,100090.16
2024-03-10T21:36:03.511Z,100095.75
2024-03-10T21:38:31.278Z,100097.20
2024-03-10T21:41:03.977Z,100095.80
2024-03-10T21:43:31.798Z,100100.77
2024-03-10T21:46:04.192Z,100094.55
2024-03-10T21:48:32.022Z,100096.49
2024-03-10T21:51:00.336Z,100092.40
2024-03-10T21:53:28.126Z,100090.95
2024-03-10T21:55:55.942Z,100085.56
2024-03-10T21:58:23.855Z,100082.47
2024-03-10T22:00:51.671Z,100079.52
2024-03-10T22:03:22.544Z,100078.48
2024-03-10T22:05:51.777Z,100075.46
2024-03-10T22:08:19.790Z,100079.02
2024-03-10T22:10:47.503Z,100083.14
2024-03-10T22:13:15.358Z,100084.33
2024-03-10T22:15:43.349Z,100083.80
2024-03-10T22:18:11.575Z,100081.52
2024-03-10T22:20:39.625Z,100082.90
2024-03-10T22:23:07.699Z,100083.16
2024-03-10T22:25:35.629Z,100075.93
2024-03-10T22:28:04.030Z,100073.23
2024-03-10T22:30:33.037Z,100074.09
2024-03-10T22:33:01.394Z,100078.71
2024-03-10T22:35:29.483Z,100073.78
2024-03-10T22:37:59.047Z,100077.91
2024-03-10T22:40:29.140Z,100077.42
2024-03-10T22:42:59.355Z,100078.49
2024-03-10T22:45:31.420Z,100079.68
2024-03-10T22:48:02.417Z,100075.17
2024-03-10T22:50:31.405Z,100077.78
2024-03-10T22:53:04.021Z,100072.09
2024-03-10T22:55:33.458Z,100075.22
2024-03-10T22:58:02.460Z,100077.69
2024-03-10T23:00:37.214Z,100076.80
2024-03-10T23:03:08.448Z,100072.92
2024-03-10T23:05:37.306Z,100076.28
2024-03-10T23:08:06.908Z,100073.74
2024-03-10T23:10:43.351Z,100071.38
2024-03-10T23:13:11.720Z,100072.77
2024-03-10T23:15:40.855Z,100078.23
2024-03-10T23:18:09.164Z,100080.83
2024-03-10T23:20:37.338Z,100082.50
2024-03-10T23:23:05.706Z,100084.21
2024-03-10T23:25:33.600Z,100078.59
2024-03-10T23:28:01.431Z,100077.73
2024-03-10T23:30:29.283Z,100076.60
2024-03-10T23:32:57.527Z,100070.08
2024-03-10T23:35:26.016Z,100073.73
2024-03-10T23:37:54.865Z,100067.11
2024-03-10T23:40:24.739Z,100062.41
2024-03-10T23:42:53.684Z,100059.73
2024-03-10T23:45:22.004Z,100062.45
2024-03-10T23:47:52.145Z,100057.46
2024-03-10T23:50:22.053Z,100057.15
2024-03-10T23:52:54.068Z,100055.92
2024-03-10T23:55:34.858Z,100055.70
2024-03-10T23:58:02.609Z,100050.90
